createdAt,value
2022-11-05T00:00:17.659Z,84.58
2022-11-05T00:03:23.721Z,84.02
2022-11-05T00:06:12.789Z,84.57
2022-11-05T00:09:00.556Z,84.76
2022-11-05T00:11:45.949Z,84.64
2022-11-05T00:14:32.645Z,85.00
2022-11-05T00:16:59.467Z,83.42
2022-11-05T00:19:26.622Z,84.73
2022-11-05T00:22:11.908Z,85.14
2022-11-05T00:24:57.597Z,84.52
2022-11-05T00:27:24.267Z,84.76
2022-11-05T00:29:51.383Z,84.39
2022-11-05T00:32:18.256Z,83.95
2022-11-05T00:34:45.341Z,84.79
2022-11-05T00:37:12.109Z,84.51
2022-11-05T00:39:39.191Z,84.54
2022-11-05T00:42:24.720Z,83.68
2022-11-05T00:45:04.165Z,83.63
2022-11-05T00:47:51.593Z,84.30
2022-11-05T00:50:21.294Z,84.16
2022-11-05T00:52:59.709Z,83.28
2022-11-05T00:55:37.933Z,83.62
2022-11-05T00:58:15.216Z,83.98
2022-11-05T01:00:48.493Z,83.62
2022-11-05T01:03:18.587Z,83.48
2022-11-05T01:05:51.006Z,83.17
2022-11-05T01:08:21.860Z,83.26
2022-11-05T01:10:56.216Z,83.45
2022-11-05T01:13:29.860Z,83.49
2022-11-05T01:15:57.422Z,83.01
2022-11-05T01:18:25.379Z,83.27
2022-11-05T01:20:52.647Z,81.89
2022-11-05T01:23:19.878Z,83.12
2022-11-05T01:25:47.305Z,82.64
2022-11-05T01:28:14.153Z,82.68
2022-11-05T01:30:41.352Z,82.72
2022-11-05T01:33:08.469Z,82.10
2022-11-05T01:35:36.056Z,82.01
2022-11-05T01:38:02.864Z,82.97
2022-11-05T01:40:30.059Z,82.33
2022-11-05T01:42:56.894Z,81.93
2022-11-05T01:45:27.384Z,81.77
2022-11-05T01:47:58.144Z,81.43
2022-11-05T01:50:43.352Z,81.64
2022-11-05T01:53:18.373Z,81.75
2022-11-05T01:56:13.268Z,82.31
2022-11-05T01:58:51.022Z,81.32
2022-11-05T02:01:19.443Z,80.79
2022-11-05T02:03:49.368Z,81.19
2022-11-05T02:06:17.855Z,79.96
2022-11-05T02:09:08.989Z,80.70
2022-11-05T02:11:36.094Z,80.66
2022-11-05T02:14:03.482Z,80.20
2022-11-05T02:16:45.769Z,78.63
2022-11-05T02:19:45.875Z,79.09
2022-11-05T02:22:39.215Z,79.68
2022-11-05T02:25:48.634Z,79.39
2022-11-05T02:28:51.758Z,79.18
2022-11-05T02:31:56.318Z,80.93
2022-11-05T02:34:53.331Z,78.87
2022-11-05T02:37:32.219Z,77.78
2022-11-05T02:40:21.734Z,79.83
2022-11-05T02:43:15.247Z,78.49
2022-11-05T02:46:08.574Z,78.78
2022-11-05T02:49:05.943Z,79.24
2022-11-05T02:51:58.428Z,78.82
2022-11-05T02:54:44.360Z,78.61
2022-11-05T02:57:11.645Z,78.29
2022-11-05T02:59:38.482Z,78.44
2022-11-05T03:02:06.707Z,77.61
2022-11-05T03:04:33.914Z,78.25
2022-11-05T03:07:42.627Z,78.85
2022-11-05T03:10:38.679Z,78.73
2022-11-05T03:13:22.403Z,78.21
2022-11-05T03:16:02.568Z,78.36
2022-11-05T03:19:04.213Z,78.83
2022-11-05T03:21:56.733Z,79.09
2022-11-05T03:24:35.645Z,78.13
2022-11-05T03:27:29.170Z,79.31
2022-11-05T03:30:07.320Z,79.05
2022-11-05T03:32:41.208Z,79.27
2022-11-05T03:35:17.150Z,78.96
2022-11-05T03:37:49.508Z,78.58
2022-11-05T03:40:18.486Z,77.45
2022-11-05T03:42:54.063Z,77.78
2022-11-05T03:45:31.818Z,78.77
2022-11-05T03:48:03.380Z,78.47
2022-11-05T03:50:45.409Z,79.69
2022-11-05T03:53:18.625Z,78.50
2022-11-05T03:55:59.380Z,78.67
2022-11-05T03:58:27.692Z,79.31
2022-11-05T04:00:55.052Z,78.40
2022-11-05T04:03:21.836Z,78.19
2022-11-05T04:06:09.581Z,78.24
2022-11-05T04:08:55.533Z,78.53
2022-11-05T04:11:41.387Z,77.97
2022-11-05T04:14:08.254Z,79.19
2022-11-05T04:16:54.038Z,78.85
2022-11-05T04:19:40.801Z,78.28
2022-11-05T04:22:26.529Z,78.47
2022-11-05T04:24:53.400Z,78.27
2022-11-05T04:27:20.467Z,78.92
2022-11-05T04:30:05.789Z,76.74
2022-11-05T04:32:33.145Z,78.19
2022-11-05T04:35:00.026Z,77.66
2022-11-05T04:37:27.127Z,76.40
2022-11-05T04:39:53.958Z,78.10
2022-11-05T04:42:21.030Z,77.33
2022-11-05T04:44:47.840Z,77.91
2022-11-05T04:47:14.874Z,77.84
2022-11-05T04:49:41.693Z,77.76
2022-11-05T04:52:08.724Z,77.56
2022-11-05T04:54:35.553Z,77.13
2022-11-05T04:57:02.664Z,76.97
2022-11-05T04:59:29.450Z,77.17
2022-11-05T05:01:56.493Z,77.79
2022-11-05T05:04:23.362Z,77.23
2022-11-05T05:06:50.407Z,77.86
2022-11-05T05:09:17.429Z,76.67
2022-11-05T05:11:44.543Z,76.86
2022-11-05T05:14:11.327Z,77.26
2022-11-05T05:16:38.440Z,77.76
2022-11-05T05:19:05.297Z,77.72
2022-11-05T05:21:42.231Z,78.32
2022-11-05T05:24:18.787Z,77.49
2022-11-05T05:26:50.995Z,77.24
2022-11-05T05:29:18.650Z,77.06
2022-11-05T05:31:45.830Z,76.60
2022-11-05T05:34:14.539Z,77.13
2022-11-05T05:36:42.188Z,76.86
2022-11-05T05:39:11.040Z,77.10
2022-11-05T05:41:38.505Z,77.10
2022-11-05T05:44:06.554Z,77.97
2022-11-05T05:46:33.801Z,77.84
2022-11-05T05:49:00.572Z,77.12
2022-11-05T05:51:27.628Z,76.94
2022-11-05T05:53:55.572Z,77.23
2022-11-05T05:56:22.661Z,75.86
2022-11-05T05:58:49.581Z,76.66
2022-11-05T06:01:19.972Z,76.58
2022-11-05T06:03:49.000Z,76.04
2022-11-05T06:06:21.457Z,75.96
2022-11-05T06:08:49.357Z,76.13
2022-11-05T06:11:16.770Z,76.29
2022-11-05T06:13:43.689Z,76.22
2022-11-05T06:16:11.303Z,76.57
2022-11-05T06:18:38.502Z,76.81
2022-11-05T06:21:11.993Z,75.63
2022-11-05T06:23:41.874Z,76.31
2022-11-05T06:26:13.774Z,76.38
2022-11-05T06:28:42.631Z,75.57
2022-11-05T06:31:11.174Z,75.54
2022-11-05T06:33:40.495Z,76.68
2022-11-05T06:36:11.697Z,76.48
2022-11-05T06:38:39.141Z,75.93
2022-11-05T06:41:10.261Z,75.57
2022-11-05T06:43:38.680Z,75.82
2022-11-05T06:46:06.676Z,76.03
2022-11-05T06:48:34.234Z,75.27
2022-11-05T06:51:02.010Z,75.77
2022-11-05T06:53:30.783Z,75.52
2022-11-05T06:55:57.969Z,76.10
2022-11-05T06:58:24.882Z,75.04
2022-11-05T07:00:52.130Z,76.61
2022-11-05T07:03:19.030Z,75.36
2022-11-05T07:05:49.910Z,74.67
2022-11-05T07:08:17.180Z,74.81
2022-11-05T07:10:44.294Z,74.58
2022-11-05T07:13:11.680Z,76.05
2022-11-05T07:15:39.316Z,75.58
2022-11-05T07:18:09.462Z,75.44
2022-11-05T07:20:37.157Z,74.78
2022-11-05T07:23:10.347Z,75.11
2022-11-05T07:25:38.325Z,75.17
2022-11-05T07:28:05.901Z,75.71
2022-11-05T07:30:34.965Z,75.00
2022-11-05T07:33:02.650Z,74.63
2022-11-05T07:35:30.162Z,74.74
2022-11-05T07:37:57.025Z,74.13
2022-11-05T07:40:27.714Z,74.75
2022-11-05T07:43:01.121Z,73.67
2022-11-05T07:45:30.938Z,73.76
2022-11-05T07:48:03.428Z,74.38
2022-11-05T07:50:33.925Z,74.04
2022-11-05T07:53:11.567Z,74.50
2022-11-05T07:55:41.744Z,73.98
2022-11-05T07:58:10.979Z,73.78
2022-11-05T08:00:44.429Z,74.93
2022-11-05T08:03:17.497Z,75.00
2022-11-05T08:05:47.605Z,74.59
2022-11-05T08:08:19.988Z,75.33
2022-11-05T08:10:47.672Z,74.78
2022-11-05T08:13:16.042Z,74.20
2022-11-05T08:15:44.101Z,74.65
2022-11-05T08:18:15.302Z,75.08
2022-11-05T08:20:45.031Z,74.50
2022-11-05T08:23:12.532Z,74.30
2022-11-05T08:25:41.539Z,74.21
2022-11-05T08:28:13.099Z,74.17
2022-11-05T08:30:41.796Z,74.12
2022-11-05T08:33:12.938Z,74.05
2022-11-05T08:35:41.067Z,74.15
2022-11-05T08:38:13.785Z,74.34
2022-11-05T08:40:43.411Z,73.95
2022-11-05T08:43:14.172Z,74.01
2022-11-05T08:45:42.317Z,73.89
2022-11-05T08:48:15.164Z,74.61
2022-11-05T08:50:44.201Z,74.21
2022-11-05T08:53:12.953Z,73.90
2022-11-05T08:55:40.921Z,72.80
2022-11-05T08:58:17.133Z,73.36
2022-11-05T09:00:48.696Z,74.31
2022-11-05T09:03:16.416Z,73.82
2022-11-05T09:05:44.211Z,73.28
2022-11-05T09:08:15.793Z,73.56
2022-11-05T09:10:44.194Z,74.09
2022-11-05T09:13:17.884Z,73.72
2022-11-05T09:15:49.098Z,74.43
2022-11-05T09:18:18.657Z,73.60
2022-11-05T09:20:46.576Z,73.82
2022-11-05T09:23:15.541Z,74.06
2022-11-05T09:25:44.294Z,74.43
2022-11-05T09:28:18.039Z,74.46
2022-11-05T09:30:49.483Z,73.65
2022-11-05T09:33:19.283Z,74.35
2022-11-05T09:35:46.815Z,73.11
2022-11-05T09:38:14.588Z,73.47
2022-11-05T09:41:07.329Z,72.93
2022-11-05T09:43:43.604Z,74.17
2022-11-05T09:46:37.921Z,73.64
2022-11-05T09:49:23.819Z,73.73
2022-11-05T09:51:56.114Z,72.60
2022-11-05T09:54:34.209Z,73.10
2022-11-05T09:57:03.876Z,73.79
2022-11-05T09:59:42.444Z,72.88
2022-11-05T10:02:55.806Z,72.91
2022-11-05T10:05:26.319Z,72.26
2022-11-05T10:08:02.280Z,71.11
2022-11-05T10:10:41.256Z,70.78
2022-11-05T10:13:27.222Z,70.67
2022-11-05T10:16:12.759Z,70.05
2022-11-05T10:18:45.867Z,71.56
2022-11-05T10:21:37.786Z,69.86
2022-11-05T10:24:17.926Z,68.61
2022-11-05T10:26:52.458Z,69.55
2022-11-05T10:29:33.227Z,66.98
2022-11-05T10:32:05.665Z,68.52
2022-11-05T10:34:38.210Z,67.57
2022-11-05T10:37:05.953Z,68.20
2022-11-05T10:39:34.730Z,68.51
2022-11-05T10:42:10.524Z,65.90
2022-11-05T10:45:29.935Z,68.19
2022-11-05T10:48:24.845Z,67.59
2022-11-05T10:50:52.240Z,67.05
2022-11-05T10:53:29.127Z,67.07
2022-11-05T10:55:58.498Z,66.35
2022-11-05T10:58:30.405Z,65.34
2022-11-05T11:00:57.520Z,66.95
2022-11-05T11:03:46.710Z,66.89
2022-11-05T11:06:48.166Z,67.39
2022-11-05T11:09:37.156Z,66.75
2022-11-05T11:12:13.292Z,66.80
2022-11-05T11:14:40.622Z,65.47
2022-11-05T11:17:43.158Z,67.62
2022-11-05T11:20:32.922Z,65.32
2022-11-05T11:23:15.783Z,67.16
2022-11-05T11:26:02.588Z,66.64
2022-11-05T11:28:39.366Z,65.73
2022-11-05T11:31:13.708Z,66.06
2022-11-05T11:33:46.960Z,66.08
2022-11-05T11:36:19.897Z,66.33
2022-11-05T11:38:48.129Z,66.16
2022-11-05T11:41:34.371Z,65.14
2022-11-05T11:47:23.153Z,66.83
2022-11-05T11:49:57.101Z,64.09
2022-11-05T11:52:33.575Z,64.07
2022-11-05T11:55:12.736Z,63.54
2022-11-05T11:57:52.610Z,63.36
2022-11-05T12:00:24.169Z,63.97
2022-11-05T12:03:09.828Z,64.16
2022-11-05T12:06:04.555Z,66.31
2022-11-05T12:09:06.517Z,65.23
2022-11-05T12:12:00.628Z,65.85
2022-11-05T12:15:01.542Z,65.00
2022-11-05T12:17:54.532Z,64.49
2022-11-05T12:20:34.091Z,66.53
2022-11-05T12:23:49.808Z,66.14
2022-11-05T12:26:24.943Z,63.03
2022-11-05T12:29:37.017Z,63.24
2022-11-05T12:32:22.378Z,66.80
2022-11-05T12:35:13.753Z,63.05
2022-11-05T12:38:13.102Z,66.09
2022-11-05T12:41:38.825Z,64.71
2022-11-05T12:44:11.723Z,62.85
2022-11-05T12:46:49.571Z,63.98
2022-11-05T12:49:55.121Z,66.26
2022-11-05T12:53:01.696Z,66.22
2022-11-05T12:55:38.232Z,66.04
2022-11-05T12:58:34.901Z,65.56
2022-11-05T13:01:09.772Z,64.47
2022-11-05T13:04:11.292Z,64.12
2022-11-05T13:06:44.008Z,64.11
2022-11-05T13:09:29.886Z,65.11
2022-11-05T13:12:21.812Z,63.36
2022-11-05T13:14:58.076Z,63.81
2022-11-05T13:17:51.388Z,64.70
2022-11-05T13:20:30.973Z,64.74
2022-11-05T13:23:10.870Z,64.92
2022-11-05T13:25:49.644Z,63.89
2022-11-05T13:28:41.211Z,62.76
2022-11-05T13:31:17.858Z,62.91
2022-11-05T13:33:49.729Z,62.26
2022-11-05T13:37:06.885Z,63.61
2022-11-05T13:40:01.449Z,63.30
2022-11-05T13:43:00.452Z,62.69
2022-11-05T13:45:55.459Z,63.75
2022-11-05T13:48:52.055Z,66.13
2022-11-05T13:51:48.200Z,66.73
2022-11-05T13:55:11.534Z,65.16
2022-11-05T13:58:06.210Z,62.25
2022-11-05T14:00:59.768Z,62.55
2022-11-05T14:03:27.095Z,61.42
2022-11-05T14:06:08.258Z,61.39
2022-11-05T14:08:46.479Z,63.04
2022-11-05T14:11:26.328Z,62.67
2022-11-05T14:14:07.036Z,63.92
2022-11-05T14:17:07.140Z,64.78
2022-11-05T14:19:51.403Z,63.67
2022-11-05T14:22:41.493Z,62.35
2022-11-05T14:25:17.753Z,61.55
2022-11-05T14:27:49.308Z,61.62
2022-11-05T14:30:41.495Z,64.20
2022-11-05T14:33:25.697Z,63.82
2022-11-05T14:36:33.662Z,62.40
2022-11-05T14:39:28.199Z,62.39
2022-11-05T14:42:28.761Z,61.35
2022-11-05T14:45:18.916Z,60.78
2022-11-05T14:48:00.104Z,60.64
2022-11-05T14:50:40.569Z,60.78
2022-11-05T14:53:36.306Z,62.12
2022-11-05T14:56:08.807Z,61.94
2022-11-05T14:58:41.795Z,61.19
2022-11-05T15:01:15.086Z,60.03
2022-11-05T15:03:46.468Z,59.97
2022-11-05T15:06:27.103Z,60.98
2022-11-05T15:09:26.739Z,60.59
2022-11-05T15:11:56.858Z,61.54
2022-11-05T15:14:42.332Z,60.75
2022-11-05T15:17:30.158Z,61.48
2022-11-05T15:20:09.540Z,61.48
2022-11-05T15:22:49.024Z,61.11
2022-11-05T15:25:53.718Z,61.29
2022-11-05T15:28:33.277Z,61.49
2022-11-05T15:31:12.740Z,61.11
2022-11-05T15:33:42.204Z,61.14
2022-11-05T15:36:31.322Z,63.03
2022-11-05T15:39:28.026Z,62.44
2022-11-05T15:41:46.938Z,62.20
2022-11-05T15:44:38.444Z,63.30
2022-11-05T15:47:25.929Z,62.52
2022-11-05T15:50:14.084Z,62.08
2022-11-05T15:52:51.035Z,63.65
2022-11-05T15:55:24.854Z,64.13
2022-11-05T15:58:03.184Z,64.15
2022-11-05T16:00:35.400Z,64.02
2022-11-05T16:03:18.903Z,64.26
2022-11-05T16:05:48.885Z,64.28
2022-11-05T16:08:22.686Z,64.62
2022-11-05T16:10:55.715Z,64.78
2022-11-05T16:13:35.660Z,64.97
2022-11-05T16:16:25.910Z,65.37
2022-11-05T16:18:52.850Z,64.92
2022-11-05T16:21:23.289Z,65.05
2022-11-05T16:23:49.993Z,64.95
2022-11-05T16:27:01.816Z,66.90
2022-11-05T16:29:46.285Z,67.02
2022-11-05T16:32:28.368Z,66.25
2022-11-05T16:35:02.588Z,67.00
2022-11-05T16:37:46.430Z,66.47
2022-11-05T16:40:25.825Z,66.19
2022-11-05T16:42:55.561Z,67.43
2022-11-05T16:45:25.038Z,66.73
2022-11-05T16:47:55.050Z,67.25
2022-11-05T16:50:32.399Z,67.16
2022-11-05T16:52:59.239Z,66.71
2022-11-05T16:55:26.433Z,66.94
2022-11-05T16:57:55.845Z,66.52
2022-11-05T17:00:24.644Z,67.04
2022-11-05T17:02:52.997Z,66.50
2022-11-05T17:05:30.846Z,67.28
2022-11-05T17:07:58.299Z,67.64
2022-11-05T17:10:26.441Z,67.74
2022-11-05T17:12:53.904Z,69.37
2022-11-05T17:15:26.005Z,68.64
2022-11-05T17:17:54.786Z,68.07
2022-11-05T17:20:41.955Z,68.71
2022-11-05T17:23:12.395Z,68.76
2022-11-05T17:25:43.242Z,69.49
2022-11-05T17:28:11.410Z,69.76
2022-11-05T17:30:41.433Z,69.55
2022-11-05T17:33:11.306Z,69.61
2022-11-05T17:35:41.192Z,70.74
2022-11-05T17:38:10.117Z,70.45
2022-11-05T17:40:38.538Z,70.01
2022-11-05T17:43:06.251Z,70.33
2022-11-05T17:45:33.844Z,70.92
2022-11-05T17:48:03.301Z,70.47
2022-11-05T17:50:30.633Z,70.99
2022-11-05T17:52:57.436Z,71.75
2022-11-05T17:55:25.753Z,71.01
2022-11-05T17:57:53.138Z,69.95
2022-11-05T18:00:24.050Z,70.07
2022-11-05T18:02:53.708Z,70.12
2022-11-05T18:05:22.791Z,70.29
2022-11-05T18:07:50.232Z,70.88
2022-11-05T18:10:17.755Z,71.15
2022-11-05T18:12:45.826Z,71.54
2022-11-05T18:15:14.360Z,71.49
2022-11-05T18:17:42.701Z,71.98
2022-11-05T18:20:17.436Z,70.64
2022-11-05T18:22:50.626Z,71.21
2022-11-05T18:25:18.723Z,71.29
2022-11-05T18:27:45.701Z,71.32
2022-11-05T18:30:15.608Z,71.05
2022-11-05T18:32:44.646Z,70.79
2022-11-05T18:35:14.561Z,71.27
2022-11-05T18:37:41.783Z,71.68
2022-11-05T18:40:10.620Z,72.09
2022-11-05T18:42:37.538Z,72.14
2022-11-05T18:45:06.954Z,71.91
2022-11-05T18:47:34.451Z,72.16
2022-11-05T18:50:02.426Z,72.33
2022-11-05T18:52:31.700Z,71.40
2022-11-05T18:54:59.889Z,72.75
2022-11-05T18:57:27.740Z,72.08
2022-11-05T18:59:54.923Z,72.71
2022-11-05T19:02:23.284Z,71.59
2022-11-05T19:05:14.449Z,71.58
2022-11-05T19:07:39.377Z,71.52
2022-11-05T19:10:07.670Z,72.21
2022-11-05T19:12:34.720Z,72.09
2022-11-05T19:15:03.018Z,72.10
2022-11-05T19:17:33.399Z,72.48
2022-11-05T19:20:01.447Z,72.78
2022-11-05T19:22:28.803Z,73.47
2022-11-05T19:24:55.901Z,73.30
2022-11-05T19:27:23.371Z,72.87
2022-11-05T19:29:50.527Z,73.30
2022-11-05T19:32:17.812Z,73.41
2022-11-05T19:34:44.883Z,73.22
2022-11-05T19:37:12.488Z,74.08
2022-11-05T19:39:41.157Z,73.78
2022-11-05T19:42:08.263Z,74.07
2022-11-05T19:44:35.638Z,74.27
2022-11-05T19:47:02.777Z,74.30
2022-11-05T19:49:29.911Z,73.86
2022-11-05T19:51:57.033Z,74.91
2022-11-05T19:54:24.053Z,74.27
2022-11-05T19:56:51.996Z,74.28
2022-11-05T19:59:19.408Z,74.77
2022-11-05T20:01:46.729Z,74.83
2022-11-05T20:04:14.055Z,73.98
2022-11-05T20:06:41.748Z,74.15
2022-11-05T20:09:22.675Z,73.86
2022-11-05T20:11:56.591Z,73.48
2022-11-05T20:14:25.900Z,73.62
2022-11-05T20:16:53.684Z,74.26
2022-11-05T20:19:22.665Z,74.73
2022-11-05T20:21:50.159Z,74.11
2022-11-05T20:24:24.863Z,74.67
2022-11-05T20:26:57.137Z,74.89
2022-11-05T20:29:30.635Z,73.86
2022-11-05T20:32:02.976Z,74.41
2022-11-05T20:34:32.477Z,73.79
2022-11-05T20:36:59.747Z,73.63
2022-11-05T20:39:27.386Z,74.42
2022-11-05T20:41:54.248Z,74.08
2022-11-05T20:44:21.628Z,73.71
2022-11-05T20:46:48.702Z,74.70
2022-11-05T20:49:17.227Z,75.26
2022-11-05T20:51:45.929Z,75.26
2022-11-05T20:54:13.129Z,75.12
2022-11-05T20:56:40.470Z,74.58
2022-11-05T20:59:07.959Z,74.38
2022-11-05T21:01:35.529Z,74.12
2022-11-05T21:04:04.458Z,74.53
2022-11-05T21:06:34.859Z,73.31
2022-11-05T21:09:04.283Z,74.31
2022-11-05T21:11:54.358Z,73.75
2022-11-05T21:14:22.130Z,73.39
2022-11-05T21:16:49.059Z,73.70
2022-11-05T21:19:16.456Z,73.84
2022-11-05T21:21:43.400Z,74.92
2022-11-05T21:24:10.697Z,74.06
2022-11-05T21:26:37.494Z,74.51
2022-11-05T21:29:04.740Z,74.16
2022-11-05T21:31:31.778Z,74.64
2022-11-05T21:33:59.050Z,74.70
2022-11-05T21:36:25.894Z,74.16
2022-11-05T21:38:53.419Z,75.30
2022-11-05T21:41:21.825Z,73.82
2022-11-05T21:43:49.927Z,74.49
2022-11-05T21:46:17.725Z,75.14
2022-11-05T21:48:45.154Z,74.59
2022-11-05T21:51:31.504Z,74.61
2022-11-05T21:54:21.533Z,74.73
2022-11-05T21:57:10.988Z,73.90
2022-11-05T21:59:55.690Z,73.75
2022-11-05T22:02:29.436Z,73.89
2022-11-05T22:05:00.170Z,74.15
2022-11-05T22:07:32.795Z,75.12
2022-11-05T22:10:01.857Z,75.24
2022-11-05T22:12:33.142Z,74.30
2022-11-05T22:15:01.871Z,75.23
2022-11-05T22:17:33.609Z,74.17
2022-11-05T22:20:00.985Z,74.85
2022-11-05T22:22:28.089Z,74.53
2022-11-05T22:24:55.424Z,74.46
2022-11-05T22:27:22.621Z,74.55
2022-11-05T22:29:50.270Z,73.95
2022-11-05T22:32:18.874Z,74.38
2022-11-05T22:34:48.791Z,74.65
2022-11-05T22:37:15.697Z,75.16
2022-11-05T22:39:42.774Z,75.46
2022-11-05T22:42:10.129Z,74.96
2022-11-05T22:44:37.530Z,73.92
2022-11-05T22:47:05.576Z,74.77
2022-11-05T22:49:33.537Z,74.63
2022-11-05T22:52:00.452Z,75.06
2022-11-05T22:54:27.727Z,75.06
2022-11-05T22:56:54.647Z,75.08
2022-11-05T22:59:22.071Z,75.52
2022-11-05T23:01:49.550Z,75.81
2022-11-05T23:04:17.015Z,76.12
2022-11-05T23:07:02.934Z,75.27
2022-11-05T23:09:53.375Z,75.35
2022-11-05T23:12:27.708Z,75.42
2022-11-05T23:14:57.685Z,76.60
2022-11-05T23:17:44.373Z,75.51
2022-11-05T23:20:42.252Z,75.88
2022-11-05T23:23:31.827Z,76.37
2022-11-05T23:26:00.263Z,76.62
2022-11-05T23:28:27.294Z,76.88
2022-11-05T23:31:12.913Z,76.05
2022-11-05T23:33:39.676Z,77.18
2022-11-05T23:36:25.772Z,77.03
2022-11-05T23:38:52.576Z,77.40
2022-11-05T23:41:38.127Z,77.63
2022-11-05T23:44:23.508Z,76.70
2022-11-05T23:47:09.509Z,76.48
2022-11-05T23:49:36.371Z,76.34
2022-11-05T23:52:03.625Z,75.98
2022-11-05T23:54:30.442Z,75.32
2022-11-05T23:56:57.615Z,75.64
2022-11-05T23:59:24.478Z,76.02
